Time;durP1;ratioP1;P1;durP2;ratioP2;P2;SDS_P1;SDS_P2;PMS_P1;PMS_P2;Temp;Humidity;BMP_temperature;BMP_pressure;BME280_temperature;BME280_humidity;BME280_pressure;Samples;Min_cycle;Max_cycle;Signal;HPM_P1;HPM_P2
2022/03/29 00:01:59;;;;;;;38.17;26.50;;;15.90;1.00;;;;;;4972097;28;20027;-39
2022/03/29 00:04:26;;;;;;;39.03;28.23;;;15.90;1.00;;;;;;4975750;28;20476;-39
2022/03/29 00:06:53;;;;;;;40.65;29.67;;;15.70;1.00;;;;;;4974269;28;20042;-39
2022/03/29 00:09:34;;;;;;;37.25;27.55;;;15.70;1.00;;;;;;4974322;28;20031;-39
2022/03/29 00:12:00;;;;;;;44.15;29.90;;;15.80;1.00;;;;;;4958672;28;20022;-38
2022/03/29 00:14:26;;;;;;;40.42;28.95;;;15.70;1.00;;;;;;4975635;28;20034;-39
2022/03/29 00:16:52;;;;;;;42.70;28.80;;;15.80;1.00;;;;;;4974764;28;20054;-38
2022/03/29 00:19:18;;;;;;;40.17;29.75;;;15.70;1.00;;;;;;4975789;28;20041;-38
2022/03/29 00:21:44;;;;;;;38.30;28.70;;;15.70;1.00;;;;;;4974627;28;20035;-38
2022/03/29 00:24:10;;;;;;;47.03;31.85;;;15.60;1.00;;;;;;4975522;28;20027;-38
2022/03/29 00:26:36;;;;;;;43.83;30.20;;;15.50;1.00;;;;;;4972918;28;20038;-38
2022/03/29 00:29:02;;;;;;;43.60;30.33;;;15.60;1.00;;;;;;4973736;28;20049;-39
2022/03/29 00:31:28;;;;;;;44.53;29.92;;;15.50;1.00;;;;;;4974518;28;20376;-39
2022/03/29 00:33:53;;;;;;;42.97;31.00;;;15.60;1.00;;;;;;4974779;28;20042;-39
2022/03/29 00:36:19;;;;;;;38.47;29.83;;;15.50;1.00;;;;;;4974503;28;20050;-39
2022/03/29 00:38:48;;;;;;;40.88;30.45;;;15.50;1.00;;;;;;4973997;28;20022;-39
2022/03/29 00:41:14;;;;;;;40.47;29.77;;;15.50;1.00;;;;;;4975110;28;20027;-39
2022/03/29 00:43:40;;;;;;;39.90;29.70;;;15.40;1.00;;;;;;4956497;28;20477;-39
2022/03/29 00:46:06;;;;;;;41.38;30.25;;;15.40;1.00;;;;;;4974212;28;20031;-38
2022/03/29 00:48:32;;;;;;;39.60;30.50;;;15.40;1.00;;;;;;4974278;28;20027;-39
2022/03/29 00:50:58;;;;;;;42.38;30.20;;;15.40;1.00;;;;;;4974895;28;20115;-39
2022/03/29 00:53:24;;;;;;;42.20;29.90;;;15.30;1.00;;;;;;4974229;28;20465;-38
2022/03/29 00:55:58;;;;;;;40.40;30.88;;;15.30;1.00;;;;;;4975041;28;20037;-38
2022/03/29 00:58:24;;;;;;;43.42;31.77;;;15.30;1.00;;;;;;4973973;28;20109;-38
2022/03/29 01:00:52;;;;;;;42.72;31.90;;;15.20;1.00;;;;;;4973488;28;20450;-38
2022/03/29 01:03:18;;;;;;;40.15;30.27;;;15.10;1.00;;;;;;4973876;28;20023;-38
2022/03/29 01:05:43;;;;;;;45.10;32.78;;;15.10;1.00;;;;;;4974858;28;20155;-39
2022/03/29 01:11:32;;;;;;;42.78;31.52;;;15.10;1.00;;;;;;4993190;28;20049;-38
2022/03/29 01:13:59;;;;;;;44.22;32.70;;;15.10;1.00;;;;;;4973480;28;20081;-38
2022/03/29 01:19:12;;;;;;;43.88;30.83;;;15.00;1.00;;;;;;4973976;28;20503;-38
2022/03/29 01:21:39;;;;;;;39.13;30.42;;;15.00;1.00;;;;;;4973179;28;20030;-39
2022/03/29 01:24:05;;;;;;;42.13;31.23;;;15.00;1.00;;;;;;4973681;28;20023;-39
2022/03/29 01:26:32;;;;;;;43.88;32.88;;;15.00;1.00;;;;;;4973612;28;20031;-39
2022/03/29 01:28:58;;;;;;;40.88;31.48;;;14.90;1.00;;;;;;4972472;28;20035;-39
2022/03/29 01:31:25;;;;;;;46.13;31.85;;;14.80;1.00;;;;;;4956044;28;20027;-39
2022/03/29 01:33:51;;;;;;;42.22;30.98;;;14.80;1.00;;;;;;4970752;28;20551;-39
2022/03/29 01:36:17;;;;;;;40.17;30.08;;;14.70;1.00;;;;;;4973106;28;20047;-39
2022/03/29 01:38:42;;;;;;;42.05;30.35;;;14.60;1.00;;;;;;4973447;28;20102;-39
2022/03/29 01:41:09;;;;;;;41.47;31.98;;;14.50;1.00;;;;;;4973888;28;20107;-39
2022/03/29 01:43:35;;;;;;;41.10;30.52;;;14.50;1.00;;;;;;4973257;28;20030;-39
2022/03/29 01:46:01;;;;;;;40.10;30.58;;;14.60;1.00;;;;;;4972580;28;20053;-39
2022/03/29 01:48:27;;;;;;;43.65;31.52;;;14.50;1.00;;;;;;4972874;28;20129;-39
2022/03/29 01:50:53;;;;;;;44.88;30.00;;;14.60;1.00;;;;;;4972537;28;20030;-39
2022/03/29 01:53:26;;;;;;;41.58;31.23;;;14.50;1.00;;;;;;4973212;28;20499;-39
2022/03/29 01:55:56;;;;;;;37.17;29.33;;;14.40;1.00;;;;;;4972327;28;20089;-39
2022/03/29 01:58:24;;;;;;;42.15;31.63;;;14.40;1.00;;;;;;4973028;28;20089;-39
2022/03/29 02:00:50;;;;;;;40.13;30.60;;;14.50;1.00;;;;;;4972554;28;20476;-39
2022/03/29 02:03:16;;;;;;;43.78;30.88;;;14.50;1.00;;;;;;4972600;28;20077;-39
2022/03/29 02:05:41;;;;;;;40.97;31.00;;;14.50;1.00;;;;;;4973472;28;20043;-39
2022/03/29 02:08:07;;;;;;;45.35;30.38;;;14.40;1.00;;;;;;4972536;28;20035;-38
2022/03/29 02:10:33;;;;;;;41.97;31.67;;;14.40;1.00;;;;;;4973374;28;20546;-38
2022/03/29 02:12:59;;;;;;;43.25;29.98;;;14.50;1.00;;;;;;4972727;28;20114;-39
2022/03/29 02:15:26;;;;;;;39.47;29.75;;;14.50;1.10;;;;;;4973628;28;20027;-39
2022/03/29 02:17:52;;;;;;;41.83;30.30;;;14.50;1.00;;;;;;4972830;28;20429;-39
2022/03/29 02:20:19;;;;;;;36.28;29.38;;;14.50;1.30;;;;;;4973372;28;20376;-39
2022/03/29 02:22:45;;;;;;;42.38;30.45;;;14.40;1.10;;;;;;4972467;28;20476;-39
2022/03/29 02:25:11;;;;;;;42.85;30.55;;;14.50;1.00;;;;;;4971938;28;20110;-39
2022/03/29 02:27:38;;;;;;;39.95;29.50;;;14.20;1.80;;;;;;4971006;28;20033;-39
2022/03/29 02:30:06;;;;;;;45.65;30.90;;;14.40;1.80;;;;;;4972477;28;20038;-39
2022/03/29 02:32:31;;;;;;;43.25;31.92;;;14.40;1.80;;;;;;4972304;28;20035;-39
2022/03/29 02:34:58;;;;;;;42.90;30.65;;;14.40;1.60;;;;;;4972185;28;20023;-40
2022/03/29 02:37:24;;;;;;;42.00;31.63;;;14.40;1.60;;;;;;4972333;28;20094;-39
2022/03/29 02:39:49;;;;;;;39.97;31.25;;;14.40;1.90;;;;;;4973033;28;20424;-39
2022/03/29 02:42:15;;;;;;;42.55;31.98;;;14.40;2.00;;;;;;4972104;28;20484;-39
2022/03/29 02:44:41;;;;;;;49.47;31.38;;;14.40;1.80;;;;;;4973055;28;20500;-39
2022/03/29 02:47:07;;;;;;;46.30;31.77;;;14.30;2.00;;;;;;4968874;28;20029;-39
2022/03/29 02:49:32;;;;;;;42.05;31.13;;;14.20;2.00;;;;;;4969264;28;20046;-39
2022/03/29 02:51:58;;;;;;;42.47;31.08;;;14.20;2.60;;;;;;4970018;28;20322;-39
2022/03/29 02:54:24;;;;;;;39.50;32.17;;;14.20;2.80;;;;;;4971488;28;20105;-38
2022/03/29 02:56:50;;;;;;;43.05;31.70;;;14.30;2.70;;;;;;4970148;28;20031;-39
2022/03/29 02:59:25;;;;;;;44.70;30.65;;;14.20;2.90;;;;;;4971719;28;20495;-39
2022/03/29 03:01:50;;;;;;;43.35;31.45;;;14.20;3.30;;;;;;4972456;28;20411;-39
2022/03/29 03:04:16;;;;;;;42.22;32.38;;;14.10;3.30;;;;;;4972774;28;20026;-39
2022/03/29 03:06:42;;;;;;;42.42;31.60;;;14.10;3.60;;;;;;4971797;28;20049;-39
2022/03/29 03:09:08;;;;;;;42.00;31.23;;;14.20;3.50;;;;;;4975932;28;20037;-38
2022/03/29 03:11:36;;;;;;;46.72;33.90;;;14.20;3.50;;;;;;4975936;28;20117;-38
2022/03/29 03:14:01;;;;;;;42.85;31.80;;;14.10;3.70;;;;;;4976712;28;20480;-38
2022/03/29 03:16:27;;;;;;;43.58;31.35;;;14.00;3.90;;;;;;4975959;28;20029;-39
2022/03/29 03:18:53;;;;;;;45.95;33.55;;;14.00;4.10;;;;;;4976557;28;20389;-39
2022/03/29 03:21:18;;;;;;;47.20;33.20;;;14.00;4.10;;;;;;4975830;28;20365;-39
2022/03/29 03:23:44;;;;;;;45.33;33.63;;;14.00;4.30;;;;;;4976499;28;20107;-38
2022/03/29 03:26:09;;;;;;;43.10;32.83;;;14.00;4.50;;;;;;4973991;28;20027;-39
2022/03/29 03:28:35;;;;;;;51.60;33.90;;;14.00;4.50;;;;;;4973492;28;20031;-38
2022/03/29 03:31:01;;;;;;;42.63;31.35;;;13.80;4.70;;;;;;4975995;28;20042;-38
2022/03/29 03:33:27;;;;;;;44.78;34.20;;;13.80;4.90;;;;;;4976076;28;20038;-38
2022/03/29 03:35:52;;;;;;;42.75;32.67;;;13.70;5.20;;;;;;4976273;28;20027;-39
2022/03/29 03:38:18;;;;;;;45.88;33.20;;;13.80;5.70;;;;;;4975478;28;20503;-38
2022/03/29 03:41:30;;;;;;;46.92;33.70;;;13.70;5.60;;;;;;4974889;28;20069;-38
2022/03/29 03:43:56;;;;;;;42.72;31.42;;;13.80;6.30;;;;;;4975562;28;20166;-38
2022/03/29 03:46:21;;;;;;;44.80;33.85;;;13.60;6.00;;;;;;4974821;28;20114;-38
2022/03/29 03:48:49;;;;;;;45.20;33.63;;;13.60;6.60;;;;;;4973848;28;20055;-38
2022/03/29 03:51:14;;;;;;;44.13;32.65;;;13.60;6.60;;;;;;4975962;28;20031;-38
2022/03/29 03:53:40;;;;;;;42.50;33.25;;;13.60;6.70;;;;;;4974858;28;20038;-38
2022/03/29 03:56:06;;;;;;;45.97;33.28;;;13.60;6.90;;;;;;4976067;28;20034;-38
2022/03/29 03:58:31;;;;;;;43.55;33.78;;;13.60;7.50;;;;;;4974680;28;20026;-39
2022/03/29 04:00:57;;;;;;;42.85;33.58;;;13.50;7.20;;;;;;4974504;28;20026;-39
2022/03/29 04:03:23;;;;;;;45.72;34.92;;;13.60;7.50;;;;;;4973808;28;20034;-39
2022/03/29 04:05:48;;;;;;;45.78;33.80;;;13.60;7.10;;;;;;4975809;28;20031;-39
2022/03/29 04:08:14;;;;;;;44.05;33.67;;;13.40;7.70;;;;;;4974470;28;20078;-39
2022/03/29 04:10:41;;;;;;;45.20;33.72;;;13.40;8.30;;;;;;4975579;28;20038;-39
2022/03/29 04:13:06;;;;;;;43.45;32.97;;;13.30;8.50;;;;;;4975022;28;20243;-39
2022/03/29 04:15:32;;;;;;;47.83;36.08;;;13.20;9.60;;;;;;4975544;28;20516;-39
2022/03/29 04:18:00;;;;;;;42.60;34.83;;;13.30;9.90;;;;;;4974822;28;20473;-39
2022/03/29 04:20:26;;;;;;;45.05;33.38;;;13.20;9.60;;;;;;4973960;28;20460;-38
2022/03/29 04:22:51;;;;;;;45.17;33.78;;;13.40;9.70;;;;;;4974675;28;20127;-39
2022/03/29 04:25:17;;;;;;;47.97;35.63;;;13.30;10.50;;;;;;4975378;28;20380;-39
2022/03/29 04:27:43;;;;;;;47.20;35.80;;;13.30;10.80;;;;;;4975063;28;20027;-39
2022/03/29 04:30:09;;;;;;;47.53;36.22;;;13.30;11.60;;;;;;4975261;28;20039;-39
2022/03/29 04:32:37;;;;;;;47.08;36.92;;;13.20;11.20;;;;;;4974778;28;20037;-39
2022/03/29 04:35:03;;;;;;;48.03;35.28;;;13.30;11.20;;;;;;4974204;28;20082;-38
2022/03/29 04:37:28;;;;;;;48.47;36.78;;;13.20;12.60;;;;;;4974321;28;20069;-38
2022/03/29 04:39:54;;;;;;;46.25;35.67;;;13.20;12.80;;;;;;4975372;28;20421;-38
2022/03/29 04:42:20;;;;;;;46.78;36.35;;;13.20;13.00;;;;;;4974606;28;20089;-38
2022/03/29 04:44:46;;;;;;;47.92;36.13;;;13.10;14.00;;;;;;4957825;28;20046;-38
2022/03/29 04:47:12;;;;;;;46.25;36.05;;;13.00;13.40;;;;;;4974380;28;20027;-38
2022/03/29 04:49:37;;;;;;;45.80;37.90;;;13.10;13.30;;;;;;4973557;28;20163;-38
2022/03/29 04:52:05;;;;;;;51.20;38.17;;;13.10;14.00;;;;;;4973926;28;20421;-39
2022/03/29 04:54:31;;;;;;;55.03;38.95;;;13.00;15.60;;;;;;4974969;28;20437;-39
2022/03/29 04:56:57;;;;;;;50.90;38.40;;;12.80;16.30;;;;;;4975050;28;20027;-39
2022/03/29 04:59:23;;;;;;;47.92;37.47;;;12.80;15.80;;;;;;4974062;28;20031;-39
2022/03/29 05:01:48;;;;;;;48.85;37.83;;;12.80;16.70;;;;;;4974438;28;20067;-38
2022/03/29 05:04:14;;;;;;;47.55;37.75;;;12.90;16.70;;;;;;4976298;28;20494;-38
2022/03/29 05:06:39;;;;;;;50.60;39.75;;;12.90;17.10;;;;;;4994118;28;20500;-38
2022/03/29 05:09:05;;;;;;;49.80;38.50;;;12.80;18.60;;;;;;4976777;28;20118;-38
2022/03/29 05:11:31;;;;;;;51.35;39.38;;;12.80;18.30;;;;;;4974532;28;20038;-38
2022/03/29 05:13:56;;;;;;;48.35;39.38;;;12.80;19.20;;;;;;4955994;28;20034;-38
2022/03/29 05:16:22;;;;;;;52.63;40.55;;;12.70;20.30;;;;;;4973912;28;20038;-38
2022/03/29 05:18:49;;;;;;;49.70;38.92;;;12.80;20.50;;;;;;4956023;28;20026;-38
2022/03/29 05:21:15;;;;;;;52.25;40.22;;;12.70;22.20;;;;;;4973186;28;20444;-38
2022/03/29 05:23:40;;;;;;;49.80;39.85;;;12.60;24.10;;;;;;4973658;28;20030;-38
2022/03/29 05:26:06;;;;;;;51.13;39.65;;;12.60;25.30;;;;;;4957003;28;20047;-38
2022/03/29 05:28:31;;;;;;;51.95;40.30;;;12.60;23.30;;;;;;4973289;28;20031;-39
2022/03/29 05:30:57;;;;;;;51.20;38.77;;;12.80;23.20;;;;;;4972958;28;20030;-39
2022/03/29 05:33:23;;;;;;;53.88;41.80;;;12.70;24.30;;;;;;4971788;28;20365;-39
2022/03/29 05:35:50;;;;;;;44.87;38.67;;;12.70;26.00;;;;;;4973846;28;20022;-39
2022/03/29 05:38:15;;;;;;;52.97;39.87;;;12.80;24.20;;;;;;4971966;28;20089;-38
2022/03/29 05:40:41;;;;;;;55.17;42.10;;;12.80;24.50;;;;;;4972688;28;20043;-39
2022/03/29 05:43:11;;;;;;;50.60;40.40;;;12.60;25.70;;;;;;4973377;28;20027;-38
2022/03/29 05:45:37;;;;;;;55.05;40.63;;;12.60;26.50;;;;;;4974022;28;20030;-39
2022/03/29 05:50:48;;;;;;;50.00;40.07;;;12.50;28.30;;;;;;4973949;28;20089;-39
2022/03/29 05:53:14;;;;;;;52.07;39.30;;;12.50;28.40;;;;;;4955828;28;20034;-38
2022/03/29 05:55:40;;;;;;;50.25;38.65;;;12.60;28.40;;;;;;4973846;28;20027;-38
2022/03/29 05:58:05;;;;;;;48.17;39.30;;;12.60;28.00;;;;;;4973135;28;20027;-38
2022/03/29 06:00:31;;;;;;;50.37;39.60;;;12.70;27.70;;;;;;4973714;28;20031;-38
2022/03/29 06:02:57;;;;;;;53.15;39.17;;;12.70;27.90;;;;;;4955443;28;20058;-38
2022/03/29 06:05:23;;;;;;;49.47;38.35;;;12.60;28.20;;;;;;4973494;28;20105;-38
2022/03/29 06:07:50;;;;;;;51.30;39.10;;;12.70;28.40;;;;;;4971596;28;20027;-38
2022/03/29 06:10:16;;;;;;;52.45;40.40;;;12.70;31.30;;;;;;4973813;28;20104;-38
2022/03/29 06:12:45;;;;;;;51.85;38.70;;;12.60;29.50;;;;;;4972814;28;22251;-38
2022/03/29 06:15:11;;;;;;;53.03;39.55;;;12.70;30.50;;;;;;4973469;28;20151;-38
2022/03/29 06:17:37;;;;;;;51.97;39.28;;;12.70;32.20;;;;;;4972731;28;20492;-39
2022/03/29 06:20:06;;;;;;;49.45;37.97;;;12.70;31.30;;;;;;4973301;28;20175;-38
2022/03/29 06:22:36;;;;;;;51.90;39.73;;;12.60;32.40;;;;;;4970927;28;20026;-39
2022/03/29 06:25:01;;;;;;;50.53;38.00;;;12.50;32.40;;;;;;4969113;28;20329;-39
2022/03/29 06:27:27;;;;;;;51.37;40.10;;;12.60;34.70;;;;;;4972485;28;20027;-39
2022/03/29 06:29:56;;;;;;;49.60;38.97;;;12.60;32.10;;;;;;4973096;28;20037;-39
2022/03/29 06:32:22;;;;;;;50.97;40.50;;;12.70;32.40;;;;;;4973319;28;20023;-39
2022/03/29 06:34:48;;;;;;;51.50;38.57;;;12.70;32.80;;;;;;4971314;28;20551;-38
2022/03/29 06:37:14;;;;;;;49.72;38.25;;;12.60;33.30;;;;;;4972967;28;20046;-39
2022/03/29 06:39:39;;;;;;;47.58;38.78;;;12.50;32.60;;;;;;4972463;28;20030;-39
2022/03/29 06:42:05;;;;;;;50.50;39.13;;;12.60;32.30;;;;;;4969986;28;20147;-39
2022/03/29 06:44:33;;;;;;;54.50;40.08;;;12.50;32.40;;;;;;4970660;28;20125;-38
2022/03/29 06:47:00;;;;;;;56.63;38.47;;;12.50;33.10;;;;;;4972380;28;20436;-39
2022/03/29 06:49:26;;;;;;;51.85;38.60;;;12.50;35.60;;;;;;4971598;28;20145;-39
2022/03/29 06:51:51;;;;;;;54.13;39.90;;;12.70;33.00;;;;;;4971555;28;20026;-39
2022/03/29 06:54:17;;;;;;;53.78;40.17;;;12.70;33.70;;;;;;4972306;28;20444;-39
2022/03/29 06:56:42;;;;;;;51.75;41.92;;;12.60;33.50;;;;;;4972082;28;20027;-39
2022/03/29 06:59:08;;;;;;;55.53;41.55;;;12.50;34.40;;;;;;4972264;28;20489;-39
2022/03/29 07:01:35;;;;;;;53.08;40.65;;;12.70;36.70;;;;;;4971706;28;20492;-38
2022/03/29 07:04:02;;;;;;;50.08;39.78;;;12.80;34.80;;;;;;4971997;28;20027;-39
2022/03/29 07:06:31;;;;;;;53.42;40.80;;;12.90;34.70;;;;;;4970841;28;20384;-39
2022/03/29 07:12:20;;;;;;;52.85;39.45;;;13.00;40.00;;;;;;4972768;28;20070;-38
2022/03/29 07:14:46;;;;;;;59.03;43.35;;;13.00;36.80;;;;;;4971860;28;20038;-38
2022/03/29 07:17:15;;;;;;;54.45;42.28;;;13.20;36.70;;;;;;4972737;28;20397;-38
2022/03/29 07:19:41;;;;;;;54.60;42.17;;;13.20;36.10;;;;;;4969422;28;20105;-38
2022/03/29 07:22:07;;;;;;;54.25;42.35;;;13.20;38.30;;;;;;4952951;28;20125;-39
2022/03/29 07:24:33;;;;;;;55.47;42.95;;;13.30;37.60;;;;;;4970180;28;20037;-39
2022/03/29 07:26:58;;;;;;;58.58;42.35;;;13.30;39.70;;;;;;4971985;28;20031;-39
2022/03/29 07:29:25;;;;;;;52.53;42.50;;;13.20;39.30;;;;;;4971250;28;20070;-39
2022/03/29 07:31:52;;;;;;;54.38;41.67;;;13.20;41.70;;;;;;4972513;28;20026;-39
2022/03/29 07:34:18;;;;;;;53.58;41.80;;;13.20;41.30;;;;;;4971212;28;20077;-39
2022/03/29 07:36:44;;;;;;;54.90;41.03;;;13.20;41.40;;;;;;4969014;28;20047;-39
2022/03/29 07:39:10;;;;;;;56.25;41.83;;;13.20;42.40;;;;;;4970361;28;20109;-39
2022/03/29 07:41:35;;;;;;;56.05;42.92;;;13.30;42.50;;;;;;4971624;28;20027;-39
2022/03/29 07:44:02;;;;;;;49.95;39.92;;;13.30;42.20;;;;;;4968124;28;20027;-39
2022/03/29 07:46:43;;;;;;;55.42;42.00;;;13.40;43.50;;;;;;4971602;28;20041;-39
2022/03/29 07:49:08;;;;;;;51.58;40.58;;;13.50;45.50;;;;;;4970985;28;20039;-39
2022/03/29 07:51:34;;;;;;;53.95;40.65;;;13.40;44.20;;;;;;4972002;28;20039;-39
2022/03/29 07:54:01;;;;;;;53.65;43.40;;;13.50;45.60;;;;;;4973131;28;20022;-39
2022/03/29 07:56:27;;;;;;;53.20;42.72;;;13.30;44.60;;;;;;4975831;28;20073;-39
2022/03/29 07:58:52;;;;;;;54.88;39.17;;;13.40;45.00;;;;;;4975112;28;20062;-39
2022/03/29 08:01:18;;;;;;;55.17;42.55;;;13.50;44.30;;;;;;4975979;28;20031;-39
2022/03/29 08:03:43;;;;;;;55.15;42.20;;;13.50;45.60;;;;;;4973257;28;20038;-39
2022/03/29 08:06:09;;;;;;;56.92;43.03;;;13.50;44.60;;;;;;4974602;28;20049;-39
2022/03/29 08:08:35;;;;;;;57.30;42.22;;;13.70;44.10;;;;;;4974332;28;20065;-39
2022/03/29 08:11:01;;;;;;;54.35;41.17;;;13.70;43.30;;;;;;4970490;28;20151;-38
2022/03/29 08:13:27;;;;;;;52.97;40.97;;;13.60;44.60;;;;;;4973563;28;20034;-39
2022/03/29 08:15:55;;;;;;;49.67;39.97;;;13.60;44.40;;;;;;4974015;28;20365;-38
2022/03/29 08:18:21;;;;;;;56.78;44.47;;;13.50;45.10;;;;;;4975564;28;20404;-39
2022/03/29 08:20:47;;;;;;;52.63;40.45;;;13.70;44.00;;;;;;4970535;28;20101;-39
2022/03/29 08:23:13;;;;;;;52.95;41.67;;;13.70;43.80;;;;;;4973333;28;20027;-39
2022/03/29 08:25:41;;;;;;;51.50;41.00;;;13.80;43.60;;;;;;4974122;28;20042;-39
2022/03/29 08:28:07;;;;;;;52.85;44.38;;;13.80;43.00;;;;;;4974656;28;20105;-39
2022/03/29 08:30:34;;;;;;;55.30;44.08;;;13.60;44.30;;;;;;4973030;28;20544;-40
2022/03/29 08:33:02;;;;;;;60.10;47.55;;;13.80;42.70;;;;;;4954410;28;20037;-39
2022/03/29 08:35:29;;;;;;;52.85;42.60;;;13.90;42.00;;;;;;4954352;28;20142;-38
2022/03/29 08:37:54;;;;;;;57.97;44.97;;;14.00;43.00;;;;;;4973277;28;20050;-38
2022/03/29 08:40:22;;;;;;;52.45;43.58;;;14.00;41.90;;;;;;4972356;28;20106;-39
2022/03/29 08:42:49;;;;;;;60.53;45.53;;;14.10;41.30;;;;;;4971920;28;20034;-39
2022/03/29 08:45:17;;;;;;;53.95;43.35;;;14.20;41.30;;;;;;4973766;28;20424;-39
2022/03/29 08:47:45;;;;;;;48.42;38.92;;;14.30;42.20;;;;;;4971832;28;20054;-38
2022/03/29 08:50:14;;;;;;;54.85;43.53;;;14.20;45.30;;;;;;4974300;28;20062;-39
2022/03/29 08:52:40;;;;;;;47.92;38.47;;;14.20;45.60;;;;;;4971501;28;20037;-38
2022/03/29 08:55:10;;;;;;;50.58;39.35;;;14.00;45.40;;;;;;4971545;28;20038;-39
2022/03/29 08:57:37;;;;;;;45.50;37.72;;;14.20;44.40;;;;;;4973934;28;20019;-38
2022/03/29 09:00:05;;;;;;;44.00;36.80;;;14.20;45.80;;;;;;4970028;28;20034;-38
2022/03/29 09:02:35;;;;;;;53.58;40.70;;;14.10;44.70;;;;;;4973372;28;20488;-38
2022/03/29 09:05:12;;;;;;;54.25;41.35;;;14.50;43.40;;;;;;4972076;28;20484;-38
2022/03/29 09:07:59;;;;;;;50.22;37.47;;;14.50;43.30;;;;;;4971505;28;20503;-38
2022/03/29 09:10:45;;;;;;;48.45;38.20;;;14.80;42.00;;;;;;4973485;28;20117;-39
2022/03/29 09:13:15;;;;;;;44.40;37.05;;;15.00;40.40;;;;;;4973676;28;20511;-39
2022/03/29 09:15:41;;;;;;;52.95;38.35;;;15.10;39.10;;;;;;4973676;28;20118;-39
2022/03/29 09:18:08;;;;;;;49.05;37.88;;;15.10;38.60;;;;;;4974534;28;20054;-39
2022/03/29 09:20:34;;;;;;;48.35;37.70;;;15.00;39.30;;;;;;4973512;28;20439;-39
2022/03/29 09:23:00;;;;;;;44.22;37.05;;;14.90;39.50;;;;;;4974374;28;20098;-39
2022/03/29 09:25:37;;;;;;;48.20;38.15;;;15.10;38.20;;;;;;4973635;28;20037;-39
2022/03/29 09:28:12;;;;;;;51.40;37.35;;;15.20;37.40;;;;;;4974261;28;20396;-39
2022/03/29 09:30:40;;;;;;;47.92;37.88;;;15.30;35.90;;;;;;4972167;28;20081;-39
2022/03/29 09:33:08;;;;;;;51.33;40.88;;;15.50;34.80;;;;;;4972754;28;20495;-39
2022/03/29 09:35:50;;;;;;;51.25;39.00;;;15.50;34.20;;;;;;4973095;28;20110;-39
2022/03/29 09:38:34;;;;;;;53.97;41.42;;;15.50;33.00;;;;;;4973994;28;20511;-39
2022/03/29 09:41:01;;;;;;;53.53;41.45;;;15.50;32.40;;;;;;4971763;28;20030;-40
2022/03/29 09:43:29;;;;;;;54.75;43.00;;;15.50;32.00;;;;;;4974039;28;20603;-40
2022/03/29 09:45:58;;;;;;;59.78;45.45;;;15.50;31.40;;;;;;4973148;28;20033;-39
2022/03/29 09:58:30;;;;;;;55.17;44.15;;;15.30;33.20;;;;;;4977830;28;20045;-39
2022/03/29 10:00:57;;;;;;;60.60;44.50;;;15.40;32.20;;;;;;4973121;28;20236;-39
2022/03/29 10:03:25;;;;;;;54.40;43.88;;;15.00;33.10;;;;;;4970358;28;20074;-39
2022/03/29 10:05:52;;;;;;;56.45;45.42;;;15.20;32.90;;;;;;4973509;28;20039;-39
2022/03/29 10:11:16;;;;;;;52.40;41.10;;;15.50;31.70;;;;;;4973935;28;20066;-39
2022/03/29 10:13:42;;;;;;;50.35;38.85;;;15.50;29.50;;;;;;4971043;28;20026;-39
2022/03/29 10:16:16;;;;;;;48.88;41.20;;;15.40;29.80;;;;;;4973519;28;20377;-39
2022/03/29 10:18:44;;;;;;;53.25;41.22;;;15.30;29.70;;;;;;4971778;28;20448;-39
2022/03/29 10:21:14;;;;;;;47.97;36.97;;;15.30;29.40;;;;;;4973542;28;20039;-39
2022/03/29 10:23:49;;;;;;;47.95;35.58;;;15.40;29.70;;;;;;4972690;28;20106;-39
2022/03/29 10:26:17;;;;;;;44.65;34.88;;;15.50;30.30;;;;;;4973667;28;20138;-39
2022/03/29 10:28:45;;;;;;;39.95;33.53;;;15.30;30.70;;;;;;4969342;28;20455;-39
2022/03/29 10:31:31;;;;;;;46.45;35.10;;;15.60;29.40;;;;;;4971776;28;20086;-39
2022/03/29 10:34:16;;;;;;;45.20;33.50;;;15.60;29.60;;;;;;4972429;28;20101;-40
2022/03/29 10:37:29;;;;;;;42.67;33.00;;;15.60;29.00;;;;;;4971523;28;20066;-38
2022/03/29 10:40:01;;;;;;;42.90;33.97;;;15.70;28.90;;;;;;4959236;28;20484;-39
2022/03/29 10:42:26;;;;;;;43.88;33.83;;;16.00;28.00;;;;;;4973363;28;20035;-38
2022/03/29 10:45:17;;;;;;;50.90;35.42;;;16.00;27.90;;;;;;4972046;28;20042;-39
2022/03/29 10:48:01;;;;;;;44.10;36.15;;;15.90;27.30;;;;;;4971518;28;20341;-39
2022/03/29 10:50:53;;;;;;;45.00;34.92;;;16.20;27.00;;;;;;4971641;28;20034;-39
2022/03/29 10:53:42;;;;;;;42.35;34.97;;;16.30;26.70;;;;;;4954006;28;20034;-38
2022/03/29 10:56:18;;;;;;;48.22;37.03;;;16.20;26.20;;;;;;4972397;28;20022;-39
2022/03/29 10:59:03;;;;;;;47.88;37.20;;;16.40;26.00;;;;;;4971493;28;20392;-39
2022/03/29 11:01:32;;;;;;;47.45;35.58;;;16.70;24.40;;;;;;4973354;28;20118;-40
2022/03/29 11:04:16;;;;;;;49.65;37.58;;;17.00;22.40;;;;;;4970956;28;20034;-39
2022/03/29 11:07:12;;;;;;;47.35;35.45;;;17.00;21.60;;;;;;4971543;28;20043;-39
2022/03/29 11:09:40;;;;;;;47.53;37.85;;;17.00;21.70;;;;;;4971719;28;20058;-39
2022/03/29 11:12:26;;;;;;;44.53;36.22;;;17.00;22.20;;;;;;4972769;28;20384;-39
2022/03/29 11:14:52;;;;;;;52.33;37.65;;;16.90;21.30;;;;;;4971936;28;20031;-39
2022/03/29 11:17:17;;;;;;;50.15;37.38;;;17.10;21.00;;;;;;4972937;28;20105;-39
2022/03/29 11:19:48;;;;;;;51.50;37.92;;;17.10;21.20;;;;;;4971171;28;20122;-39
2022/03/29 11:22:29;;;;;;;48.90;36.47;;;17.10;21.50;;;;;;4972977;28;20038;-40
2022/03/29 11:24:58;;;;;;;51.70;38.15;;;17.20;20.80;;;;;;4972008;28;20176;-39
2022/03/29 11:27:28;;;;;;;49.08;38.60;;;17.00;20.80;;;;;;4972962;28;20027;-39
2022/03/29 11:40:20;;;;;;;55.05;39.58;;;17.20;19.00;;;;;;4965714;28;20531;-38
2022/03/29 11:42:49;;;;;;;50.38;38.67;;;17.20;19.20;;;;;;4973452;28;20035;-40
2022/03/29 11:45:17;;;;;;;49.80;39.28;;;17.20;18.10;;;;;;4975315;28;20105;-40
2022/03/29 11:47:57;;;;;;;51.33;40.33;;;17.40;17.60;;;;;;4976138;28;20110;-40
2022/03/29 11:50:48;;;;;;;53.45;39.95;;;17.60;17.10;;;;;;4976103;28;20043;-38
2022/03/29 11:53:34;;;;;;;51.97;40.42;;;;;;;;;;4975740;28;20034;-38
2022/03/29 11:56:13;;;;;;;54.92;41.13;;;17.70;16.10;;;;;;4976029;28;20109;-38
2022/03/29 11:58:39;;;;;;;54.10;39.80;;;17.90;15.80;;;;;;4974942;28;20030;-39
2022/03/29 12:01:07;;;;;;;50.72;40.13;;;18.00;14.90;;;;;;4975842;28;20031;-39
2022/03/29 12:03:38;;;;;;;58.63;41.72;;;18.20;13.50;;;;;;4972019;28;20027;-39
2022/03/29 12:06:12;;;;;;;48.55;38.22;;;18.20;14.40;;;;;;4974349;28;20027;-39
2022/03/29 12:08:51;;;;;;;53.97;37.22;;;18.50;13.90;;;;;;4974976;28;20037;-39
2022/03/29 12:11:20;;;;;;;53.17;37.00;;;18.60;12.30;;;;;;4975882;28;20182;-38
2022/03/29 12:13:47;;;;;;;48.95;37.67;;;18.80;11.20;;;;;;4973578;28;20042;-39
2022/03/29 12:16:19;;;;;;;52.65;37.63;;;18.90;10.60;;;;;;4974392;28;20156;-39
2022/03/29 12:18:45;;;;;;;51.00;37.25;;;;;;;;;;4974945;28;20399;-40
2022/03/29 12:21:14;;;;;;;50.13;40.13;;;19.30;7.80;;;;;;4975405;28;20019;-40
2022/03/29 12:23:41;;;;;;;46.45;37.85;;;19.40;7.70;;;;;;4974621;28;20420;-39
2022/03/29 12:26:11;;;;;;;48.35;38.05;;;19.60;5.70;;;;;;4974005;28;20043;-39
2022/03/29 12:28:38;;;;;;;46.53;36.75;;;20.20;6.10;;;;;;4973717;28;20043;-39
2022/03/29 12:31:10;;;;;;;47.88;36.45;;;20.60;6.00;;;;;;4974895;28;20089;-39
2022/03/29 12:33:36;;;;;;;46.20;36.47;;;22.30;3.00;;;;;;4962575;28;20407;-39
2022/03/29 12:36:03;;;;;;;44.55;35.28;;;25.00;1.00;;;;;;4972290;28;20034;-38
2022/03/29 12:38:41;;;;;;;48.15;35.78;;;27.40;1.00;;;;;;4972260;28;20113;-39
2022/03/29 12:41:08;;;;;;;48.05;36.63;;;29.70;1.00;;;;;;4969299;28;20078;-38
2022/03/29 12:43:35;;;;;;;40.10;34.17;;;30.10;1.00;;;;;;4969935;28;20034;-39
2022/03/29 12:46:09;;;;;;;40.90;33.03;;;29.80;1.00;;;;;;4968074;28;20049;-39
2022/03/29 12:48:36;;;;;;;;;;;30.70;1.00;;;;;;4969956;28;20370;-38
2022/03/29 12:51:04;;;;;;;40.58;33.92;;;31.90;1.00;;;;;;4972566;28;20020;-39
2022/03/29 12:53:40;;;;;;;38.15;32.53;;;31.00;1.70;;;;;;4971607;28;20109;-38
2022/03/29 12:56:10;;;;;;;41.42;33.08;;;32.40;1.00;;;;;;4970488;28;20042;-41
2022/03/29 12:58:37;;;;;;;41.30;32.30;;;33.30;1.00;;;;;;4971187;28;20539;-39
2022/03/29 13:01:04;;;;;;;38.15;32.10;;;33.80;1.00;;;;;;4968950;28;20027;-39
2022/03/29 13:03:41;;;;;;;40.22;32.30;;;33.40;1.00;;;;;;4968872;28;20039;-38
2022/03/29 13:06:08;;;;;;;35.50;30.58;;;34.20;1.00;;;;;;4969983;28;20030;-40
2022/03/29 13:08:35;;;;;;;38.72;34.05;;;34.00;1.00;;;;;;4973808;28;20400;-39
2022/03/29 13:11:16;;;;;;;37.00;33.00;;;34.00;1.00;;;;;;4973648;28;20126;-39
2022/03/29 13:13:42;;;;;;;39.00;31.70;;;34.00;1.00;;;;;;4983756;28;20030;-39
2022/03/29 13:16:19;;;;;;;32.40;28.90;;;34.00;1.00;;;;;;4971505;28;20041;-38